createdAt,value
2019-01-13T00:02:16.795Z,4.47
2019-01-13T00:04:44.047Z,5.30
2019-01-13T00:07:11.312Z,5.97
2019-01-13T00:09:38.568Z,5.63
2019-01-13T00:12:05.855Z,4.80
2019-01-13T00:14:33.104Z,5.33
2019-01-13T00:17:00.345Z,6.33
2019-01-13T00:19:27.596Z,5.80
2019-01-13T00:21:54.866Z,5.70
2019-01-13T00:24:22.127Z,5.40
2019-01-13T00:26:49.760Z,4.73
2019-01-13T00:29:17.111Z,4.87
2019-01-13T00:31:44.687Z,4.53
2019-01-13T00:34:12.349Z,5.20
2019-01-13T00:36:39.989Z,4.23
2019-01-13T00:39:08.079Z,4.57
2019-01-13T00:41:35.642Z,4.03
2019-01-13T00:44:04.659Z,5.30
2019-01-13T00:46:32.018Z,5.80
2019-01-13T00:48:59.372Z,5.67
2019-01-13T00:51:26.596Z,4.97
2019-01-13T00:53:53.992Z,5.57
2019-01-13T00:56:21.273Z,5.83
2019-01-13T00:58:48.514Z,5.90
2019-01-13T01:01:15.841Z,6.07
2019-01-13T01:03:43.197Z,5.27
2019-01-13T01:06:10.454Z,6.13
2019-01-13T01:08:38.095Z,5.93
2019-01-13T01:11:07.206Z,5.53
2019-01-13T01:13:35.314Z,5.67
2019-01-13T01:16:03.172Z,4.93
2019-01-13T01:18:30.901Z,5.40
2019-01-13T01:20:58.558Z,5.70
2019-01-13T01:23:26.256Z,5.30
2019-01-13T01:25:53.556Z,4.80
2019-01-13T01:28:20.805Z,4.97
2019-01-13T01:30:48.081Z,5.20
2019-01-13T01:33:15.326Z,4.80
2019-01-13T01:35:42.582Z,4.80
2019-01-13T01:38:09.827Z,5.13
2019-01-13T01:40:37.087Z,6.27
2019-01-13T01:43:04.332Z,4.77
2019-01-13T01:45:31.583Z,4.87
2019-01-13T01:47:58.839Z,3.90
2019-01-13T01:50:26.104Z,4.30
2019-01-13T01:52:53.317Z,4.00
2019-01-13T01:55:20.584Z,4.27
2019-01-13T01:57:47.918Z,4.90
2019-01-13T02:00:20.968Z,4.23
2019-01-13T02:02:48.333Z,4.60
2019-01-13T02:05:15.661Z,3.67
2019-01-13T02:07:42.997Z,4.13
2019-01-13T02:10:13.241Z,4.33
2019-01-13T02:12:40.608Z,4.10
2019-01-13T02:15:10.425Z,4.27
2019-01-13T02:17:37.672Z,4.43
2019-01-13T02:20:07.356Z,5.00
2019-01-13T02:22:34.617Z,4.83
2019-01-13T02:25:01.964Z,4.53
2019-01-13T02:27:29.229Z,4.27
2019-01-13T02:29:56.481Z,4.97
2019-01-13T02:32:23.726Z,4.83
2019-01-13T02:34:51.084Z,6.20
2019-01-13T02:37:18.339Z,5.73
2019-01-13T02:39:45.675Z,5.27
2019-01-13T02:42:12.936Z,5.67
2019-01-13T02:44:40.199Z,5.63
2019-01-13T02:47:07.449Z,5.10
2019-01-13T02:49:37.319Z,5.73
2019-01-13T02:52:04.586Z,5.43
2019-01-13T02:54:31.811Z,5.27
2019-01-13T02:56:59.064Z,5.40
2019-01-13T02:59:26.335Z,6.30
2019-01-13T03:01:53.596Z,5.83
2019-01-13T03:04:20.876Z,5.87
2019-01-13T03:06:48.114Z,6.17
2019-01-13T03:09:15.393Z,6.10
2019-01-13T03:11:42.687Z,6.27
2019-01-13T03:14:09.930Z,5.80
2019-01-13T03:16:37.162Z,6.80
2019-01-13T03:19:04.428Z,7.33
2019-01-13T03:21:31.669Z,6.90
2019-01-13T03:23:59.272Z,6.83
2019-01-13T03:26:26.624Z,7.33
2019-01-13T03:28:53.864Z,7.07
2019-01-13T03:31:21.133Z,8.27
2019-01-13T03:33:48.355Z,8.17
2019-01-13T03:36:15.611Z,7.33
2019-01-13T03:38:42.857Z,7.60
2019-01-13T03:41:10.160Z,8.20
2019-01-13T03:43:37.436Z,8.33
2019-01-13T03:46:04.813Z,8.23
2019-01-13T03:48:32.045Z,7.97
2019-01-13T03:50:59.291Z,8.00
2019-01-13T03:53:26.620Z,8.33
2019-01-13T03:56:02.841Z,7.27
2019-01-13T03:58:30.108Z,6.87
2019-01-13T04:00:57.339Z,7.03
2019-01-13T04:03:24.580Z,6.97
2019-01-13T04:05:51.947Z,7.17
2019-01-13T04:08:19.192Z,6.77
2019-01-13T04:10:46.433Z,6.63
2019-01-13T04:13:13.708Z,6.00
2019-01-13T04:16:04.205Z,5.63
2019-01-13T04:18:31.548Z,5.37
2019-01-13T04:20:58.824Z,5.20
2019-01-13T04:23:26.387Z,5.20
2019-01-13T04:25:53.643Z,4.87
2019-01-13T04:28:20.884Z,4.97
2019-01-13T04:30:48.124Z,5.53
2019-01-13T04:33:15.369Z,4.70
2019-01-13T04:35:42.716Z,4.40
2019-01-13T04:38:09.979Z,4.90
2019-01-13T04:40:38.376Z,4.60
2019-01-13T04:43:05.639Z,4.50
2019-01-13T04:45:33.101Z,4.60
2019-01-13T04:48:00.331Z,4.17
2019-01-13T04:50:27.660Z,4.90
2019-01-13T04:52:54.947Z,4.77
2019-01-13T04:55:22.277Z,4.53
2019-01-13T04:57:49.537Z,4.50
2019-01-13T05:00:17.755Z,4.90
2019-01-13T05:02:45.118Z,4.53
2019-01-13T05:05:12.380Z,4.60
2019-01-13T05:07:39.627Z,4.60
2019-01-13T05:10:10.563Z,5.13
2019-01-13T05:12:37.792Z,5.20
2019-01-13T05:15:05.646Z,4.63
2019-01-13T05:17:33.850Z,5.07
2019-01-13T05:20:01.248Z,5.23
2019-01-13T05:22:28.509Z,5.57
2019-01-13T05:24:55.745Z,5.40
2019-01-13T05:27:23.021Z,5.10
2019-01-13T05:29:50.274Z,5.30
2019-01-13T05:32:17.500Z,5.80
2019-01-13T05:34:44.765Z,5.60
2019-01-13T05:37:12.009Z,6.50
2019-01-13T05:39:39.257Z,5.43
2019-01-13T05:42:06.511Z,5.67
2019-01-13T05:44:33.751Z,6.17
2019-01-13T05:47:00.990Z,6.50
2019-01-13T05:49:28.239Z,6.10
2019-01-13T05:51:55.486Z,5.47
2019-01-13T05:54:22.813Z,5.60
2019-01-13T05:56:50.197Z,5.17
2019-01-13T05:59:17.471Z,5.70
2019-01-13T06:01:49.055Z,5.50
2019-01-13T06:04:13.885Z,5.77
2019-01-13T06:06:41.156Z,5.47
2019-01-13T06:09:08.396Z,5.40
2019-01-13T06:11:35.645Z,6.00
2019-01-13T06:14:02.979Z,6.03
2019-01-13T06:16:30.212Z,5.33
2019-01-13T06:18:57.460Z,5.80
2019-01-13T06:21:24.702Z,6.17
2019-01-13T06:23:51.959Z,5.63
2019-01-13T06:26:19.203Z,5.87
2019-01-13T06:28:46.432Z,5.83
2019-01-13T06:31:13.706Z,6.37
2019-01-13T06:33:41.029Z,5.77
2019-01-13T06:36:08.270Z,6.13
2019-01-13T06:38:35.535Z,5.83
2019-01-13T06:41:02.802Z,5.70
2019-01-13T06:43:30.127Z,5.60
2019-01-13T06:46:00.482Z,5.63
2019-01-13T06:48:27.715Z,5.30
2019-01-13T06:50:54.955Z,5.27
2019-01-13T06:53:22.216Z,5.13
2019-01-13T06:55:49.448Z,4.57
2019-01-13T06:58:16.696Z,4.27
2019-01-13T07:00:43.928Z,3.87
2019-01-13T07:03:11.179Z,3.23
2019-01-13T07:05:38.460Z,2.70
2019-01-13T07:08:05.703Z,2.33
2019-01-13T07:10:32.940Z,2.30
2019-01-13T07:13:00.209Z,2.50
2019-01-13T07:15:27.451Z,1.87
2019-01-13T07:17:54.697Z,1.90
2019-01-13T07:20:22.060Z,1.37
2019-01-13T07:22:49.429Z,1.50
2019-01-13T07:25:16.676Z,1.20
2019-01-13T07:27:43.913Z,0.93
2019-01-13T07:30:13.838Z,1.27
2019-01-13T07:32:41.076Z,0.80
2019-01-13T07:35:08.304Z,1.10
2019-01-13T07:37:35.557Z,1.30
2019-01-13T07:40:05.212Z,2.03
2019-01-13T07:42:32.471Z,1.00
2019-01-13T07:44:59.727Z,0.77
2019-01-13T07:47:27.009Z,1.00
2019-01-13T07:49:54.238Z,1.20
2019-01-13T07:52:21.498Z,1.03
2019-01-13T07:54:48.767Z,1.00
2019-01-13T07:57:16.028Z,0.90
2019-01-13T07:59:43.277Z,0.90
2019-01-13T08:02:17.608Z,0.73
2019-01-13T08:04:40.229Z,0.80
2019-01-13T08:07:07.589Z,0.53
2019-01-13T08:09:34.822Z,0.67
2019-01-13T08:12:02.859Z,0.83
2019-01-13T08:14:30.373Z,0.93
2019-01-13T08:17:03.879Z,1.30
2019-01-13T08:19:31.108Z,0.80
2019-01-13T08:21:58.364Z,1.00
2019-01-13T08:24:25.615Z,1.10
2019-01-13T08:26:52.851Z,1.10
2019-01-13T08:29:20.394Z,1.10
2019-01-13T08:31:47.715Z,0.93
2019-01-13T08:34:15.136Z,0.90
2019-01-13T08:36:42.687Z,0.97
2019-01-13T08:39:10.749Z,0.77
2019-01-13T08:41:38.072Z,0.67
2019-01-13T08:44:05.714Z,0.60
2019-01-13T08:46:33.344Z,0.73
2019-01-13T08:49:00.664Z,0.90
2019-01-13T08:51:28.027Z,0.50
2019-01-13T08:53:55.689Z,0.83
2019-01-13T08:56:23.813Z,1.20
2019-01-13T08:58:52.383Z,0.80
2019-01-13T09:01:19.723Z,0.90
2019-01-13T09:03:53.145Z,1.13
2019-01-13T09:06:20.610Z,1.10
2019-01-13T09:08:54.258Z,0.90
2019-01-13T09:11:21.660Z,0.83
2019-01-13T09:13:49.032Z,0.90
2019-01-13T09:16:16.715Z,0.93
2019-01-13T09:19:03.740Z,1.10
2019-01-13T09:21:31.099Z,1.40
2019-01-13T09:23:58.656Z,1.97
2019-01-13T09:26:25.954Z,1.33
2019-01-13T09:29:05.707Z,1.27
2019-01-13T09:31:32.965Z,1.10
2019-01-13T09:34:15.632Z,1.07
2019-01-13T09:36:42.888Z,1.63
2019-01-13T09:39:10.343Z,1.70
2019-01-13T09:41:37.708Z,1.43
2019-01-13T09:44:05.052Z,1.27
2019-01-13T09:46:32.300Z,1.00
2019-01-13T09:48:59.682Z,0.70
2019-01-13T09:51:27.038Z,1.10
2019-01-13T09:53:54.260Z,0.40
2019-01-13T09:56:21.492Z,1.67
2019-01-13T09:58:50.884Z,1.30
2019-01-13T10:01:19.655Z,1.00
2019-01-13T10:03:48.943Z,0.60
2019-01-13T10:06:17.132Z,0.30
2019-01-13T10:08:44.549Z,0.60
2019-01-13T10:11:11.927Z,0.60
2019-01-13T10:13:39.196Z,0.57
2019-01-13T10:16:06.475Z,0.30
2019-01-13T10:18:33.740Z,0.30
2019-01-13T10:21:01.041Z,0.20
2019-01-13T10:23:28.291Z,0.40
2019-01-13T10:25:55.541Z,0.63
2019-01-13T10:28:22.847Z,0.13
2019-01-13T10:30:50.112Z,0.33
2019-01-13T10:33:21.535Z,0.33
2019-01-13T10:35:48.804Z,0.30
2019-01-13T10:38:16.091Z,0.30
2019-01-13T10:40:43.359Z,0.33
2019-01-13T10:43:10.592Z,0.50
2019-01-13T10:45:37.962Z,0.43
2019-01-13T10:48:05.201Z,0.57
2019-01-13T10:50:32.463Z,0.20
2019-01-13T10:53:01.872Z,0.30
2019-01-13T10:55:29.245Z,0.10
2019-01-13T10:57:56.752Z,0.30
2019-01-13T11:00:26.404Z,0.20
2019-01-13T11:02:53.676Z,0.20
2019-01-13T11:05:20.899Z,0.20
2019-01-13T11:07:48.192Z,0.10
2019-01-13T11:10:15.504Z,0.30
2019-01-13T11:12:42.873Z,0.20
2019-01-13T11:15:10.473Z,0.20
2019-01-13T11:17:37.724Z,0.30
2019-01-13T11:20:07.905Z,0.20
2019-01-13T11:22:35.175Z,0.37
2019-01-13T11:25:02.773Z,0.20
2019-01-13T11:27:30.080Z,0.50
2019-01-13T11:29:57.411Z,0.30
2019-01-13T11:32:24.643Z,0.20
2019-01-13T11:34:51.929Z,0.70
2019-01-13T11:37:19.183Z,0.70
2019-01-13T11:39:46.428Z,0.20
2019-01-13T11:42:13.766Z,0.40
2019-01-13T11:44:41.189Z,0.20
2019-01-13T11:47:08.503Z,0.30
2019-01-13T11:49:41.712Z,0.40
2019-01-13T11:52:09.045Z,0.90
2019-01-13T11:54:36.323Z,0.60
2019-01-13T11:57:03.584Z,0.40
2019-01-13T11:59:30.863Z,0.67
2019-01-13T12:01:58.180Z,0.40
2019-01-13T12:04:25.454Z,0.70
2019-01-13T12:06:52.739Z,0.30
2019-01-13T12:09:20.032Z,0.47
2019-01-13T12:11:47.329Z,0.10
2019-01-13T12:14:14.672Z,0.30
2019-01-13T12:16:42.159Z,0.33
2019-01-13T12:19:09.450Z,0.80
2019-01-13T12:21:36.723Z,0.47
2019-01-13T12:24:04.072Z,0.43
2019-01-13T12:26:31.317Z,0.57
2019-01-13T12:28:58.599Z,0.43
2019-01-13T12:31:25.955Z,0.30
2019-01-13T12:33:53.268Z,0.40
2019-01-13T12:36:20.787Z,0.40
2019-01-13T12:38:48.191Z,0.50
2019-01-13T12:41:18.181Z,0.50
2019-01-13T12:43:45.448Z,0.70
2019-01-13T12:46:12.804Z,0.90
2019-01-13T12:48:40.115Z,1.37
2019-01-13T12:51:07.398Z,1.13
2019-01-13T12:53:34.979Z,0.90
2019-01-13T12:56:02.231Z,1.00
2019-01-13T12:58:29.584Z,0.90
2019-01-13T13:00:56.883Z,1.07
2019-01-13T13:03:24.245Z,2.37
2019-01-13T13:05:51.621Z,1.50
2019-01-13T13:08:18.940Z,1.20
2019-01-13T13:10:49.121Z,1.40
2019-01-13T13:13:16.436Z,1.30
2019-01-13T13:15:43.716Z,0.70
2019-01-13T13:18:13.840Z,0.60
2019-01-13T13:20:41.111Z,0.30
2019-01-13T13:23:08.864Z,0.47
2019-01-13T13:25:36.187Z,0.60
2019-01-13T13:28:04.440Z,0.93
2019-01-13T13:30:31.758Z,0.70
2019-01-13T13:32:59.039Z,0.50
2019-01-13T13:35:26.296Z,0.43
2019-01-13T13:37:53.565Z,0.60
2019-01-13T13:40:22.128Z,1.00
2019-01-13T13:42:49.418Z,1.33
2019-01-13T13:45:17.013Z,1.03
2019-01-13T13:47:44.744Z,0.60
2019-01-13T13:50:14.409Z,0.40
2019-01-13T13:52:41.654Z,0.40
2019-01-13T13:55:09.291Z,3.53
2019-01-13T13:57:36.628Z,1.43
2019-01-13T14:00:11.134Z,0.73
2019-01-13T14:02:38.376Z,1.43
2019-01-13T14:05:05.735Z,1.57
2019-01-13T14:07:33.044Z,0.50
2019-01-13T14:10:00.296Z,0.60
2019-01-13T14:12:27.550Z,0.67
2019-01-13T14:14:54.815Z,0.80
2019-01-13T14:17:22.086Z,1.13
2019-01-13T14:19:49.331Z,0.73
2019-01-13T14:22:16.593Z,0.70
2019-01-13T14:24:44.032Z,0.80
2019-01-13T14:27:11.396Z,0.60
2019-01-13T14:29:38.660Z,1.00
2019-01-13T14:32:05.891Z,0.97
2019-01-13T14:34:33.155Z,1.00
2019-01-13T14:37:00.393Z,1.10
2019-01-13T14:39:27.668Z,0.80
2019-01-13T14:41:54.948Z,0.83
2019-01-13T14:44:25.232Z,1.03
2019-01-13T14:46:52.586Z,0.50
2019-01-13T14:49:19.848Z,0.50
2019-01-13T14:51:47.143Z,0.70
2019-01-13T14:54:14.688Z,0.70
2019-01-13T14:56:41.982Z,0.67
2019-01-13T14:59:09.331Z,1.00
2019-01-13T15:01:38.828Z,0.53
2019-01-13T15:04:06.175Z,0.50
2019-01-13T15:06:33.441Z,0.40
2019-01-13T15:09:00.696Z,0.50
2019-01-13T15:11:27.959Z,0.60
2019-01-13T15:13:55.216Z,0.60
2019-01-13T15:16:22.536Z,0.50
2019-01-13T15:18:49.788Z,0.40
2019-01-13T15:21:17.033Z,0.30
2019-01-13T15:23:44.274Z,0.30
2019-01-13T15:26:11.535Z,0.33
2019-01-13T15:28:38.855Z,0.70
2019-01-13T15:31:06.082Z,0.50
2019-01-13T15:33:33.377Z,0.70
2019-01-13T15:36:00.612Z,0.63
2019-01-13T15:38:28.064Z,0.87
2019-01-13T15:40:55.315Z,0.77
2019-01-13T15:43:22.660Z,0.67
2019-01-13T15:45:49.931Z,1.30
2019-01-13T15:48:17.227Z,0.70
2019-01-13T15:50:44.464Z,0.90
2019-01-13T15:53:11.843Z,0.60
2019-01-13T15:55:39.095Z,0.70
2019-01-13T15:58:06.426Z,2.00
2019-01-13T16:00:36.063Z,0.67
2019-01-13T16:03:15.467Z,0.60
2019-01-13T16:05:45.799Z,0.40
2019-01-13T16:08:13.044Z,0.70
2019-01-13T16:10:40.665Z,0.30
2019-01-13T16:13:08.270Z,0.10
2019-01-13T16:15:36.067Z,0.40
2019-01-13T16:18:03.938Z,0.23
2019-01-13T16:20:36.200Z,0.30
2019-01-13T16:23:03.983Z,0.20
2019-01-13T16:25:31.282Z,0.40
2019-01-13T16:27:58.547Z,0.33
2019-01-13T16:30:26.381Z,0.20
2019-01-13T16:32:53.744Z,0.20
2019-01-13T16:35:24.888Z,0.20
2019-01-13T16:37:53.757Z,0.40
2019-01-13T16:40:22.845Z,0.20
2019-01-13T16:42:52.651Z,0.20
2019-01-13T16:45:20.021Z,0.10
2019-01-13T16:47:59.941Z,0.20
2019-01-13T16:50:28.352Z,0.30
2019-01-13T16:53:09.588Z,0.30
2019-01-13T16:56:02.004Z,0.10
2019-01-13T16:58:29.273Z,0.20
2019-01-13T17:00:56.550Z,0.13
2019-01-13T17:03:23.876Z,0.20
2019-01-13T17:05:51.166Z,1.20
2019-01-13T17:08:18.471Z,1.23
2019-01-13T17:10:45.739Z,0.47
2019-01-13T17:13:12.987Z,0.33
2019-01-13T17:15:40.373Z,0.30
2019-01-13T17:18:08.162Z,0.30
2019-01-13T17:20:35.453Z,0.20
2019-01-13T17:23:03.017Z,0.60
2019-01-13T17:25:30.307Z,0.30
2019-01-13T17:28:00.121Z,0.40
2019-01-13T17:30:32.479Z,0.40
2019-01-13T17:32:59.718Z,0.30
2019-01-13T17:35:27.482Z,0.77
2019-01-13T17:37:54.840Z,0.60
2019-01-13T17:40:22.828Z,0.37
2019-01-13T17:42:50.297Z,0.80
2019-01-13T17:45:19.031Z,1.17
2019-01-13T17:47:46.756Z,0.57
2019-01-13T17:50:15.769Z,1.03
2019-01-13T17:52:43.060Z,0.30
2019-01-13T17:55:12.811Z,1.00
2019-01-13T17:57:40.099Z,0.57
2019-01-13T18:00:12.952Z,0.40
2019-01-13T18:02:40.317Z,0.50
2019-01-13T18:05:07.788Z,0.50
2019-01-13T18:07:35.116Z,0.77
2019-01-13T18:10:02.491Z,0.40
2019-01-13T18:12:29.815Z,0.20
2019-01-13T18:14:57.495Z,0.27
2019-01-13T18:17:25.219Z,0.30
2019-01-13T18:20:05.947Z,0.30
2019-01-13T18:22:33.303Z,0.67
2019-01-13T18:25:06.778Z,0.93
2019-01-13T18:27:34.108Z,1.03
2019-01-13T18:30:01.633Z,0.40
2019-01-13T18:32:29.166Z,0.80
2019-01-13T18:34:56.745Z,0.77
2019-01-13T18:37:24.137Z,0.80
2019-01-13T18:39:51.405Z,1.10
2019-01-13T18:42:18.735Z,0.43
2019-01-13T18:44:46.000Z,0.40
2019-01-13T18:47:19.262Z,0.30
2019-01-13T18:49:46.499Z,1.20
2019-01-13T18:52:13.904Z,0.63
2019-01-13T18:54:41.165Z,0.30
2019-01-13T18:57:08.428Z,0.30
2019-01-13T18:59:35.805Z,0.50
2019-01-13T19:02:03.338Z,0.77
2019-01-13T19:04:30.593Z,0.60
2019-01-13T19:06:57.967Z,0.70
2019-01-13T19:09:25.312Z,0.80
2019-01-13T19:11:52.714Z,0.90
2019-01-13T19:14:32.463Z,0.70
2019-01-13T19:17:04.746Z,0.63
2019-01-13T19:19:56.912Z,0.90
2019-01-13T19:22:25.864Z,1.27
2019-01-13T19:24:56.486Z,1.30
2019-01-13T19:27:23.778Z,1.67
2019-01-13T19:29:51.056Z,0.80
2019-01-13T19:32:24.523Z,2.07
2019-01-13T19:34:51.868Z,1.50
2019-01-13T19:37:19.235Z,1.47
2019-01-13T19:39:46.646Z,1.03
2019-01-13T19:42:13.964Z,1.33
2019-01-13T19:44:41.247Z,2.10
2019-01-13T19:47:08.542Z,1.50
2019-01-13T19:49:35.849Z,1.53
2019-01-13T19:52:06.481Z,1.50
2019-01-13T19:54:33.754Z,1.47
2019-01-13T19:57:01.037Z,1.73
2019-01-13T19:59:28.329Z,1.60
2019-01-13T20:01:55.601Z,2.23
2019-01-13T20:04:22.968Z,2.07
2019-01-13T20:06:50.581Z,2.00
2019-01-13T20:09:17.848Z,2.00
2019-01-13T20:11:45.156Z,2.07
2019-01-13T20:14:12.432Z,2.73
2019-01-13T20:16:39.688Z,2.33
2019-01-13T20:19:06.982Z,1.90
2019-01-13T20:21:34.296Z,2.40
2019-01-13T20:24:01.600Z,1.93
2019-01-13T20:26:29.043Z,2.47
2019-01-13T20:28:56.421Z,1.60
2019-01-13T20:31:23.686Z,2.13
2019-01-13T20:33:50.987Z,2.00
2019-01-13T20:36:18.248Z,1.93
2019-01-13T20:38:45.509Z,1.80
2019-01-13T20:41:12.789Z,1.90
2019-01-13T20:43:40.100Z,1.73
2019-01-13T20:46:07.367Z,2.07
2019-01-13T20:48:34.645Z,1.30
2019-01-13T20:51:01.928Z,1.37
2019-01-13T20:53:29.199Z,0.60
2019-01-13T20:55:56.473Z,0.80
2019-01-13T20:58:23.931Z,0.50
2019-01-13T21:00:51.366Z,0.70
2019-01-13T21:03:18.708Z,1.13
2019-01-13T21:05:46.081Z,1.20
2019-01-13T21:08:13.515Z,0.93
2019-01-13T21:10:40.838Z,1.20
2019-01-13T21:13:08.181Z,0.97
2019-01-13T21:16:11.616Z,0.77
2019-01-13T21:18:44.763Z,0.93
2019-01-13T21:21:12.044Z,1.13
2019-01-13T21:23:39.310Z,1.30
2019-01-13T21:26:06.619Z,0.80
2019-01-13T21:28:33.981Z,1.00
2019-01-13T21:31:01.231Z,0.20
2019-01-13T21:33:28.487Z,0.33
2019-01-13T21:35:55.800Z,0.30
2019-01-13T21:38:23.080Z,0.20
2019-01-13T21:40:50.433Z,0.77
2019-01-13T21:43:17.725Z,0.50
2019-01-13T21:45:45.062Z,0.30
2019-01-13T21:48:12.620Z,0.50
2019-01-13T21:50:39.971Z,0.30
2019-01-13T21:53:17.526Z,0.50
2019-01-13T21:55:44.832Z,0.40
2019-01-13T21:58:12.079Z,0.53
2019-01-13T22:00:39.393Z,0.67
2019-01-13T22:03:06.687Z,0.70
2019-01-13T22:05:40.798Z,0.50
2019-01-13T22:08:03.503Z,0.47
2019-01-13T22:10:36.812Z,0.73
2019-01-13T22:13:28.907Z,0.53
2019-01-13T22:15:58.851Z,0.50
2019-01-13T22:18:26.129Z,0.43
2019-01-13T22:20:53.552Z,0.33
2019-01-13T22:23:20.906Z,0.60
2019-01-13T22:25:48.175Z,0.77
2019-01-13T22:28:15.472Z,0.40
2019-01-13T22:30:42.719Z,0.43
2019-01-13T22:33:09.981Z,0.37
2019-01-13T22:35:37.255Z,0.30
2019-01-13T22:38:25.905Z,1.23
2019-01-13T22:40:53.231Z,0.27
2019-01-13T22:43:20.475Z,0.50
2019-01-13T22:45:50.860Z,0.70
2019-01-13T22:48:18.127Z,0.63
2019-01-13T22:50:45.401Z,0.60
2019-01-13T22:53:31.360Z,0.60
2019-01-13T22:55:59.161Z,0.40
2019-01-13T22:58:27.628Z,0.60
2019-01-13T23:01:16.548Z,1.53
2019-01-13T23:04:00.471Z,1.50
2019-01-13T23:06:28.768Z,1.27
2019-01-13T23:08:57.481Z,0.93
2019-01-13T23:11:33.984Z,0.70
2019-01-13T23:14:38.183Z,0.87
2019-01-13T23:17:05.453Z,1.30
2019-01-13T23:19:45.397Z,1.27
2019-01-13T23:22:12.652Z,1.00
2019-01-13T23:24:40.009Z,1.20
2019-01-13T23:27:07.296Z,1.17
2019-01-13T23:29:34.738Z,1.50
2019-01-13T23:32:02.097Z,1.60
2019-01-13T23:34:29.349Z,1.10
2019-01-13T23:36:56.847Z,1.60
2019-01-13T23:39:39.305Z,1.77
2019-01-13T23:42:06.590Z,1.63
2019-01-13T23:44:33.836Z,1.47
2019-01-13T23:47:01.082Z,1.10
2019-01-13T23:49:31.208Z,1.93
2019-01-13T23:51:58.604Z,1.90
2019-01-13T23:54:25.980Z,1.03
2019-01-13T23:56:53.387Z,1.60
2019-01-13T23:59:20.706Z,1.27
